createdAt,value
2023-03-17T00:02:07.355Z,6.29
2023-03-17T00:04:35.365Z,6.40
2023-03-17T00:07:06.423Z,6.35
2023-03-17T00:09:34.436Z,6.05
2023-03-17T00:12:02.731Z,6.32
2023-03-17T00:14:31.508Z,6.31
2023-03-17T00:16:59.562Z,6.06
2023-03-17T00:19:32.716Z,6.21
2023-03-17T00:22:01.378Z,6.02
2023-03-17T00:24:31.293Z,5.67
2023-03-17T00:27:00.322Z,5.78
2023-03-17T00:29:28.373Z,6.01
2023-03-17T00:31:58.960Z,6.02
2023-03-17T00:34:27.759Z,5.87
2023-03-17T00:36:56.105Z,5.80
2023-03-17T00:39:25.423Z,5.93
2023-03-17T00:41:55.294Z,5.66
2023-03-17T00:44:24.305Z,5.83
2023-03-17T00:46:52.580Z,5.64
2023-03-17T00:49:24.501Z,6.05
2023-03-17T00:51:53.061Z,5.68
2023-03-17T00:54:22.141Z,5.78
2023-03-17T00:56:53.218Z,6.08
2023-03-17T00:59:28.981Z,6.15
2023-03-17T01:01:58.143Z,5.79
2023-03-17T01:04:26.924Z,5.75
2023-03-17T01:06:55.962Z,5.89
2023-03-17T01:09:29.109Z,5.88
2023-03-17T01:11:57.105Z,5.84
2023-03-17T01:14:26.713Z,5.92
2023-03-17T01:16:55.596Z,6.09
2023-03-17T01:19:23.886Z,5.75
2023-03-17T01:21:52.427Z,5.70
2023-03-17T01:24:21.478Z,5.80
2023-03-17T01:26:49.706Z,5.99
2023-03-17T01:29:18.218Z,5.97
2023-03-17T01:31:48.153Z,5.87
2023-03-17T01:34:16.550Z,5.88
2023-03-17T01:36:44.700Z,5.87
2023-03-17T01:39:13.531Z,5.61
2023-03-17T01:41:41.423Z,5.98
2023-03-17T01:44:17.273Z,5.71
2023-03-17T01:46:47.533Z,5.99
2023-03-17T01:49:21.588Z,5.98
2023-03-17T01:51:58.698Z,5.77
2023-03-17T01:54:32.248Z,5.92
2023-03-17T01:57:04.931Z,6.05
2023-03-17T01:59:38.373Z,6.17
2023-03-17T02:02:12.137Z,5.87
2023-03-17T02:04:40.720Z,5.91
2023-03-17T02:07:10.173Z,6.08
2023-03-17T02:09:41.800Z,6.07
2023-03-17T02:12:11.966Z,6.01
2023-03-17T02:14:40.418Z,6.25
2023-03-17T02:17:09.952Z,6.04
2023-03-17T02:19:38.948Z,6.23
2023-03-17T02:22:08.861Z,6.27
2023-03-17T02:24:40.657Z,6.42
2023-03-17T02:27:13.389Z,6.28
2023-03-17T02:29:42.298Z,5.92
2023-03-17T02:32:11.074Z,6.04
2023-03-17T02:34:39.365Z,6.42
2023-03-17T02:37:09.263Z,6.27
2023-03-17T02:39:37.783Z,6.36
2023-03-17T02:42:07.165Z,5.82
2023-03-17T02:44:35.633Z,6.03
2023-03-17T02:47:04.351Z,5.88
2023-03-17T02:49:34.312Z,6.20
2023-03-17T02:52:02.896Z,5.95
2023-03-17T02:54:32.744Z,5.96
2023-03-17T02:57:01.913Z,6.19
2023-03-17T02:59:29.906Z,6.18
2023-03-17T03:01:57.986Z,5.75
2023-03-17T03:04:26.619Z,5.84
2023-03-17T03:06:55.061Z,5.88
2023-03-17T03:09:24.646Z,5.91
2023-03-17T03:11:54.045Z,5.76
2023-03-17T03:14:22.216Z,5.66
2023-03-17T03:16:50.765Z,5.75
2023-03-17T03:19:18.988Z,5.81
2023-03-17T03:21:47.240Z,5.80
2023-03-17T03:24:15.637Z,5.86
2023-03-17T03:26:43.899Z,5.87
2023-03-17T03:29:13.790Z,5.68
2023-03-17T03:31:41.776Z,5.80
2023-03-17T03:34:10.166Z,5.90
2023-03-17T03:36:38.950Z,5.92
2023-03-17T03:39:08.050Z,6.11
2023-03-17T03:41:36.971Z,5.76
2023-03-17T03:44:05.660Z,6.15
2023-03-17T03:46:35.309Z,5.87
2023-03-17T03:49:03.705Z,6.24
2023-03-17T03:51:32.528Z,5.84
2023-03-17T03:54:01.390Z,6.06
2023-03-17T03:56:29.286Z,6.05
2023-03-17T03:58:58.025Z,5.90
2023-03-17T04:01:25.934Z,6.04
2023-03-17T04:03:55.492Z,5.85
2023-03-17T04:06:24.284Z,6.03
2023-03-17T04:08:52.566Z,5.67
2023-03-17T04:11:21.912Z,5.68
2023-03-17T04:13:50.324Z,5.97
2023-03-17T04:16:18.447Z,6.22
2023-03-17T04:18:46.562Z,5.65
2023-03-17T04:21:18.881Z,6.08
2023-03-17T04:23:47.527Z,5.99
2023-03-17T04:26:17.457Z,6.15
2023-03-17T04:28:46.181Z,6.22
2023-03-17T04:31:15.218Z,5.83
2023-03-17T04:33:43.623Z,6.18
2023-03-17T04:36:21.156Z,6.16
2023-03-17T04:38:49.964Z,6.06
2023-03-17T04:41:18.602Z,5.96
2023-03-17T04:43:47.718Z,6.11
2023-03-17T04:46:16.726Z,5.81
2023-03-17T04:48:44.893Z,6.01
2023-03-17T04:51:13.550Z,6.17
2023-03-17T04:53:43.338Z,6.09
2023-03-17T04:56:12.087Z,5.98
2023-03-17T04:58:40.373Z,6.10
2023-03-17T05:01:09.255Z,5.97
2023-03-17T05:03:38.519Z,5.87
2023-03-17T05:06:07.314Z,5.86
2023-03-17T05:08:35.544Z,5.51
2023-03-17T05:11:05.912Z,5.89
2023-03-17T05:13:35.865Z,6.00
2023-03-17T05:16:04.158Z,6.13
2023-03-17T05:18:32.956Z,5.92
2023-03-17T05:21:01.078Z,5.67
2023-03-17T05:23:30.012Z,5.68
2023-03-17T05:25:59.931Z,5.75
2023-03-17T05:28:30.058Z,5.61
2023-03-17T05:30:58.406Z,5.83
2023-03-17T05:33:28.345Z,5.76
2023-03-17T05:35:57.957Z,5.97
2023-03-17T05:38:26.899Z,5.88
2023-03-17T05:40:55.412Z,6.11
2023-03-17T05:43:23.804Z,6.19
2023-03-17T05:45:53.746Z,6.20
2023-03-17T05:48:23.190Z,6.19
2023-03-17T05:50:52.284Z,6.47
2023-03-17T05:53:20.895Z,6.47
2023-03-17T05:55:49.846Z,6.40
2023-03-17T05:58:18.886Z,6.43
2023-03-17T06:00:47.249Z,6.50
2023-03-17T06:03:17.422Z,6.82
2023-03-17T06:05:46.156Z,6.60
2023-03-17T06:08:15.061Z,6.97
2023-03-17T06:10:44.281Z,7.00
2023-03-17T06:13:13.023Z,7.06
2023-03-17T06:15:42.395Z,6.86
2023-03-17T06:18:11.719Z,7.12
2023-03-17T06:20:43.115Z,7.08
2023-03-17T06:23:11.960Z,7.15
2023-03-17T06:25:43.366Z,7.17
2023-03-17T06:28:13.190Z,7.63
2023-03-17T06:30:41.910Z,7.51
2023-03-17T06:33:22.511Z,7.60
2023-03-17T06:38:46.606Z,9.90
2023-03-17T06:41:14.995Z,10.84
2023-03-17T06:43:43.524Z,12.97
2023-03-17T06:46:12.701Z,14.19
2023-03-17T06:48:40.974Z,14.10
2023-03-17T06:51:11.272Z,13.37
2023-03-17T06:53:42.358Z,12.82
2023-03-17T06:56:23.541Z,12.24
2023-03-17T06:58:56.638Z,13.06
2023-03-17T07:01:25.109Z,13.60
2023-03-17T07:03:54.813Z,13.58
2023-03-17T07:06:25.355Z,14.15
2023-03-17T07:08:53.956Z,16.06
2023-03-17T07:11:24.814Z,17.28
2023-03-17T07:13:54.384Z,16.92
2023-03-17T07:16:22.905Z,16.32
2023-03-17T07:18:51.877Z,15.17
2023-03-17T07:21:20.738Z,15.45
2023-03-17T07:23:55.583Z,13.68
2023-03-17T07:26:25.363Z,12.26
2023-03-17T07:28:54.014Z,13.08
2023-03-17T07:31:23.981Z,11.83
2023-03-17T07:33:52.980Z,10.96
2023-03-17T07:36:21.701Z,11.31
2023-03-17T07:38:52.105Z,10.32
2023-03-17T07:41:22.314Z,10.71
2023-03-17T07:43:50.641Z,12.08
2023-03-17T07:46:19.825Z,13.77
2023-03-17T07:48:48.370Z,14.65
2023-03-17T07:51:19.682Z,13.44
2023-03-17T07:53:48.079Z,15.72
2023-03-17T07:56:18.882Z,16.44
2023-03-17T07:58:47.788Z,15.51
2023-03-17T08:01:16.781Z,15.89
2023-03-17T08:03:45.466Z,15.62
2023-03-17T08:06:14.725Z,16.92
2023-03-17T08:08:44.363Z,16.43
2023-03-17T08:11:12.673Z,16.75
2023-03-17T08:13:45.501Z,16.83
2023-03-17T08:16:15.906Z,17.64
2023-03-17T08:18:47.775Z,16.78
2023-03-17T08:21:16.977Z,17.08
2023-03-17T08:23:46.267Z,16.79
2023-03-17T08:26:16.690Z,17.77
2023-03-17T08:28:46.656Z,18.54
2023-03-17T08:31:17.712Z,17.58
2023-03-17T08:33:49.009Z,17.64
2023-03-17T08:36:19.240Z,16.88
2023-03-17T08:38:48.892Z,16.76
2023-03-17T08:41:20.701Z,19.31
2023-03-17T08:43:50.952Z,18.97
2023-03-17T08:46:22.306Z,17.85
2023-03-17T08:48:52.557Z,19.51
2023-03-17T08:51:24.607Z,18.62
2023-03-17T08:53:54.402Z,18.73
2023-03-17T08:56:24.102Z,18.36
2023-03-17T08:58:54.663Z,19.04
2023-03-17T09:01:25.041Z,19.25
2023-03-17T09:03:55.505Z,17.60
2023-03-17T09:06:27.428Z,18.74
2023-03-17T09:08:56.360Z,17.08
2023-03-17T09:11:27.101Z,16.57
2023-03-17T09:16:49.340Z,15.61
2023-03-17T09:19:21.934Z,15.02
2023-03-17T09:24:21.228Z,15.23
2023-03-17T09:26:53.764Z,15.14
2023-03-17T09:29:28.477Z,15.50
2023-03-17T09:31:58.566Z,16.18
2023-03-17T09:34:35.443Z,17.90
2023-03-17T09:37:05.586Z,16.21
2023-03-17T09:39:37.017Z,16.02
2023-03-17T09:42:19.030Z,15.62
2023-03-17T09:45:08.580Z,15.79
2023-03-17T09:48:07.460Z,15.39
2023-03-17T09:50:46.483Z,15.40
2023-03-17T09:53:23.283Z,15.04
2023-03-17T09:55:57.267Z,16.81
2023-03-17T09:58:35.171Z,15.38
2023-03-17T10:01:06.754Z,14.99
2023-03-17T10:03:39.215Z,15.37
2023-03-17T10:06:31.022Z,15.57
2023-03-17T10:09:04.390Z,15.41
2023-03-17T10:11:45.512Z,15.52
2023-03-17T10:14:28.997Z,16.16
2023-03-17T10:17:03.825Z,16.08
2023-03-17T10:19:36.609Z,15.93
2023-03-17T10:22:14.860Z,16.80
2023-03-17T10:24:49.925Z,17.78
2023-03-17T10:27:20.071Z,16.62
2023-03-17T10:29:48.777Z,16.17
2023-03-17T10:32:18.539Z,17.04
2023-03-17T10:34:50.131Z,16.96
2023-03-17T10:37:20.474Z,16.74
2023-03-17T10:39:51.117Z,16.89
2023-03-17T10:42:25.219Z,17.87
2023-03-17T10:44:56.880Z,17.31
2023-03-17T10:47:33.300Z,16.37
2023-03-17T10:50:06.425Z,16.56
2023-03-17T10:52:40.836Z,15.96
2023-03-17T10:55:14.764Z,16.43
2023-03-17T10:57:53.212Z,16.22
2023-03-17T11:00:23.823Z,16.06
2023-03-17T11:02:58.436Z,16.36
2023-03-17T11:05:29.476Z,16.74
2023-03-17T11:08:10.477Z,17.17
2023-03-17T11:10:42.105Z,16.47
2023-03-17T11:13:10.742Z,16.20
2023-03-17T11:15:44.629Z,16.98
2023-03-17T11:18:21.339Z,17.00
2023-03-17T11:20:55.658Z,16.64
2023-03-17T11:23:39.813Z,17.07
2023-03-17T11:26:24.800Z,17.15
2023-03-17T11:29:01.793Z,16.23
2023-03-17T11:31:36.474Z,17.26
2023-03-17T11:34:09.811Z,16.92
2023-03-17T11:36:55.243Z,17.89
2023-03-17T11:39:28.386Z,18.17
2023-03-17T11:42:10.295Z,17.22
2023-03-17T11:45:04.871Z,17.24
2023-03-17T11:47:43.770Z,17.47
2023-03-17T11:50:28.338Z,17.98
2023-03-17T11:53:20.602Z,17.99
2023-03-17T11:55:57.418Z,17.73
2023-03-17T11:58:34.102Z,17.78
2023-03-17T12:01:09.230Z,18.16
2023-03-17T12:03:43.221Z,19.01
2023-03-17T12:06:20.540Z,18.54
2023-03-17T12:08:53.924Z,18.25
2023-03-17T12:11:28.150Z,17.85
2023-03-17T12:14:01.499Z,18.51
2023-03-17T12:16:35.974Z,18.18
2023-03-17T12:19:13.093Z,18.68
2023-03-17T12:21:50.296Z,18.76
2023-03-17T12:24:24.464Z,18.95
2023-03-17T12:26:59.434Z,18.95
2023-03-17T12:29:41.468Z,19.07
2023-03-17T12:32:15.674Z,18.82
2023-03-17T12:34:51.442Z,18.57
2023-03-17T12:37:22.094Z,19.23
2023-03-17T12:39:59.265Z,20.02
2023-03-17T12:42:38.518Z,19.48
2023-03-17T12:45:33.275Z,19.52
2023-03-17T12:48:27.608Z,19.09
2023-03-17T12:51:44.072Z,19.87
2023-03-17T12:54:21.511Z,20.34
2023-03-17T12:56:51.689Z,19.28
2023-03-17T12:59:22.589Z,19.43
2023-03-17T13:01:59.042Z,19.05
2023-03-17T13:04:32.493Z,18.91
2023-03-17T13:07:07.594Z,18.94
2023-03-17T13:09:49.865Z,18.68
2023-03-17T13:12:59.834Z,18.67
2023-03-17T13:15:55.392Z,19.08
2023-03-17T13:18:40.356Z,18.59
2023-03-17T13:21:14.942Z,19.06
2023-03-17T13:23:45.746Z,19.13
2023-03-17T13:26:21.007Z,19.45
2023-03-17T13:28:52.292Z,19.52
2023-03-17T13:31:38.588Z,19.16
2023-03-17T13:34:18.889Z,20.86
2023-03-17T13:37:02.719Z,20.57
2023-03-17T13:40:01.109Z,21.00
2023-03-17T13:42:44.978Z,20.82
2023-03-17T13:45:35.816Z,20.25
2023-03-17T13:48:32.248Z,20.66
2023-03-17T13:51:21.355Z,21.06
2023-03-17T13:53:54.553Z,20.45
2023-03-17T13:56:31.002Z,20.60
2023-03-17T13:59:07.889Z,20.52
2023-03-17T14:01:42.988Z,21.14
2023-03-17T14:04:22.215Z,20.04
2023-03-17T14:06:54.941Z,20.29
2023-03-17T14:09:33.344Z,20.60
2023-03-17T14:12:07.260Z,20.70
2023-03-17T14:14:47.514Z,20.28
2023-03-17T14:17:20.895Z,21.53
2023-03-17T14:20:04.462Z,20.95
2023-03-17T14:22:33.235Z,21.01
2023-03-17T14:25:03.820Z,21.58
2023-03-17T14:27:35.934Z,20.97
2023-03-17T14:30:17.827Z,20.36
2023-03-17T14:32:50.002Z,20.75
2023-03-17T14:35:18.630Z,19.81
2023-03-17T14:37:46.948Z,19.98
2023-03-17T14:40:23.940Z,19.77
2023-03-17T14:42:52.229Z,20.12
2023-03-17T14:45:33.631Z,20.01
2023-03-17T14:48:13.847Z,20.54
2023-03-17T14:50:52.797Z,19.87
2023-03-17T14:53:24.157Z,20.01
2023-03-17T14:55:54.455Z,19.99
2023-03-17T14:58:26.573Z,19.69
2023-03-17T15:00:59.911Z,19.81
2023-03-17T15:03:31.691Z,19.37
2023-03-17T15:06:22.968Z,19.45
2023-03-17T15:08:52.666Z,19.70
2023-03-17T15:11:27.255Z,20.11
2023-03-17T15:13:58.152Z,20.57
2023-03-17T15:16:31.186Z,20.09
2023-03-17T15:19:07.382Z,20.42
2023-03-17T15:21:40.659Z,19.95
2023-03-17T15:24:26.056Z,19.56
2023-03-17T15:27:01.345Z,20.20
2023-03-17T15:29:30.258Z,19.92
2023-03-17T15:32:08.699Z,20.05
2023-03-17T15:34:36.853Z,20.16
2023-03-17T15:37:05.026Z,21.12
2023-03-17T15:39:34.018Z,21.03
2023-03-17T15:42:02.090Z,20.80
2023-03-17T15:44:30.070Z,20.83
2023-03-17T15:46:58.683Z,20.83
2023-03-17T15:49:28.376Z,19.93
2023-03-17T15:51:56.500Z,19.92
2023-03-17T15:54:25.105Z,20.15
2023-03-17T15:56:53.382Z,20.32
2023-03-17T15:59:24.407Z,20.56
2023-03-17T16:01:55.498Z,20.14
2023-03-17T16:04:24.068Z,20.30
2023-03-17T16:06:53.572Z,20.35
2023-03-17T16:09:22.354Z,19.90
2023-03-17T16:11:52.259Z,19.94
2023-03-17T16:14:20.540Z,19.60
2023-03-17T16:16:49.254Z,19.18
2023-03-17T16:19:21.415Z,20.13
2023-03-17T16:21:50.920Z,19.07
2023-03-17T16:24:25.526Z,19.18
2023-03-17T16:26:54.963Z,19.04
2023-03-17T16:29:23.545Z,19.16
2023-03-17T16:31:52.477Z,18.85
2023-03-17T16:34:23.167Z,18.46
2023-03-17T16:36:51.972Z,18.45
2023-03-17T16:39:23.943Z,18.29
2023-03-17T16:41:53.512Z,18.24
2023-03-17T16:44:23.567Z,17.96
2023-03-17T16:46:52.204Z,17.81
2023-03-17T16:49:23.101Z,18.51
2023-03-17T16:51:51.412Z,18.14
2023-03-17T16:54:20.173Z,18.29
2023-03-17T16:56:49.941Z,17.87
2023-03-17T16:59:22.513Z,17.89
2023-03-17T17:01:50.969Z,17.33
2023-03-17T17:04:19.069Z,17.46
2023-03-17T17:06:47.741Z,17.13
2023-03-17T17:09:16.036Z,16.93
2023-03-17T17:11:44.718Z,16.78
2023-03-17T17:14:14.768Z,16.87
2023-03-17T17:16:43.176Z,16.64
2023-03-17T17:19:18.067Z,16.35
2023-03-17T17:21:46.531Z,16.29
2023-03-17T17:24:15.585Z,16.00
2023-03-17T17:26:44.315Z,15.98
2023-03-17T17:29:13.833Z,15.74
2023-03-17T17:31:42.139Z,15.82
2023-03-17T17:34:11.070Z,15.92
2023-03-17T17:36:39.376Z,15.54
2023-03-17T17:39:07.656Z,15.76
2023-03-17T17:41:36.485Z,15.72
2023-03-17T17:44:05.677Z,15.29
2023-03-17T17:46:35.523Z,15.63
2023-03-17T17:49:04.121Z,15.28
2023-03-17T17:51:32.871Z,15.31
2023-03-17T17:54:00.974Z,14.97
2023-03-17T17:56:31.377Z,14.93
2023-03-17T17:58:59.453Z,14.68
2023-03-17T18:01:27.869Z,14.68
2023-03-17T18:03:57.900Z,14.76
2023-03-17T18:06:26.228Z,14.57
2023-03-17T18:08:55.382Z,14.62
2023-03-17T18:11:23.816Z,14.57
2023-03-17T18:13:52.674Z,14.18
2023-03-17T18:16:21.032Z,14.33
2023-03-17T18:18:49.504Z,14.52
2023-03-17T18:21:19.277Z,14.19
2023-03-17T18:23:49.203Z,14.16
2023-03-17T18:26:18.710Z,14.43
2023-03-17T18:28:47.854Z,14.06
2023-03-17T18:31:20.820Z,14.21
2023-03-17T18:33:52.465Z,14.19
2023-03-17T18:36:23.163Z,14.02
2023-03-17T18:38:52.130Z,13.98
2023-03-17T18:41:20.344Z,13.85
2023-03-17T18:43:49.373Z,14.14
2023-03-17T18:46:17.624Z,13.73
2023-03-17T18:48:45.955Z,13.81
2023-03-17T18:51:14.737Z,13.87
2023-03-17T18:53:44.265Z,13.76
2023-03-17T18:56:12.672Z,13.79
2023-03-17T18:58:41.426Z,13.63
2023-03-17T19:01:09.502Z,13.66
2023-03-17T19:03:38.346Z,13.72
2023-03-17T19:06:11.785Z,13.82
2023-03-17T19:08:40.611Z,13.71
2023-03-17T19:11:12.085Z,13.36
2023-03-17T19:13:40.709Z,13.37
2023-03-17T19:16:10.526Z,13.40
2023-03-17T19:18:42.040Z,13.30
2023-03-17T19:21:11.364Z,13.16
2023-03-17T19:23:39.357Z,13.35
2023-03-17T19:26:10.763Z,13.05
2023-03-17T19:28:38.877Z,13.02
2023-03-17T19:31:07.468Z,13.05
2023-03-17T19:33:36.077Z,13.27
2023-03-17T19:36:08.691Z,13.33
2023-03-17T19:38:37.611Z,13.31
2023-03-17T19:41:06.783Z,13.44
2023-03-17T19:43:41.244Z,13.45
2023-03-17T19:46:11.420Z,13.28
2023-03-17T19:48:40.776Z,13.31
2023-03-17T19:51:09.458Z,13.14
2023-03-17T19:53:39.051Z,13.51
2023-03-17T19:56:08.222Z,13.15
2023-03-17T19:58:38.422Z,13.16
2023-03-17T20:01:09.067Z,12.99
2023-03-17T20:03:39.360Z,12.96
2023-03-17T20:06:07.616Z,13.00
2023-03-17T20:08:36.824Z,12.92
2023-03-17T20:11:06.042Z,12.78
2023-03-17T20:13:35.491Z,12.80
2023-03-17T20:16:06.389Z,12.69
2023-03-17T20:18:36.045Z,12.86
2023-03-17T20:21:08.198Z,12.84
2023-03-17T20:23:37.842Z,12.69
2023-03-17T20:26:07.392Z,12.86
2023-03-17T20:28:36.286Z,12.74
2023-03-17T20:31:08.068Z,12.81
2023-03-17T20:33:37.577Z,12.77
2023-03-17T20:36:06.299Z,12.79
2023-03-17T20:38:37.444Z,12.56
2023-03-17T20:41:07.626Z,12.73
2023-03-17T20:43:37.922Z,12.63
2023-03-17T20:46:09.357Z,12.59
2023-03-17T20:48:38.503Z,12.46
2023-03-17T20:51:07.109Z,12.53
2023-03-17T20:53:36.285Z,12.49
2023-03-17T20:56:05.370Z,12.56
2023-03-17T20:58:34.022Z,12.31
2023-03-17T21:01:02.845Z,12.51
2023-03-17T21:03:32.863Z,12.36
2023-03-17T21:06:01.495Z,12.49
2023-03-17T21:08:29.751Z,12.56
2023-03-17T21:10:59.025Z,12.44
2023-03-17T21:13:27.656Z,12.62
2023-03-17T21:15:56.848Z,12.66
2023-03-17T21:18:25.497Z,12.76
2023-03-17T21:20:56.067Z,12.69
2023-03-17T21:23:24.825Z,12.78
2023-03-17T21:25:56.977Z,12.85
2023-03-17T21:28:25.366Z,12.53
2023-03-17T21:30:53.781Z,12.90
2023-03-17T21:33:22.587Z,12.85
2023-03-17T21:35:51.082Z,12.93
2023-03-17T21:38:21.554Z,12.74
2023-03-17T21:40:50.353Z,12.51
2023-03-17T21:43:18.930Z,12.47
2023-03-17T21:45:47.084Z,12.44
2023-03-17T21:48:15.729Z,12.72
2023-03-17T21:50:44.687Z,12.76
2023-03-17T21:53:16.310Z,12.72
2023-03-17T21:55:45.801Z,12.76
2023-03-17T21:58:13.884Z,12.82
2023-03-17T22:00:45.678Z,12.48
2023-03-17T22:03:14.273Z,12.55
2023-03-17T22:05:42.849Z,12.50
2023-03-17T22:08:11.159Z,12.32
2023-03-17T22:10:40.413Z,12.57
2023-03-17T22:13:10.493Z,12.29
2023-03-17T22:15:38.900Z,12.08
2023-03-17T22:18:07.182Z,12.07
2023-03-17T22:20:35.836Z,11.85
2023-03-17T22:23:04.579Z,11.78
2023-03-17T22:25:32.859Z,11.59
2023-03-17T22:28:01.945Z,11.78
2023-03-17T22:30:31.853Z,11.62
2023-03-17T22:33:00.201Z,11.64
2023-03-17T22:35:28.872Z,11.64
2023-03-17T22:37:57.345Z,11.63
2023-03-17T22:40:25.421Z,11.54
2023-03-17T22:42:57.714Z,11.30
2023-03-17T22:45:26.918Z,11.25
2023-03-17T22:47:57.035Z,11.37
2023-03-17T22:50:25.485Z,11.27
2023-03-17T22:52:53.667Z,11.33
2023-03-17T22:55:22.164Z,11.19
2023-03-17T22:57:50.554Z,11.25
2023-03-17T23:00:19.714Z,11.19
2023-03-17T23:02:48.666Z,11.34
2023-03-17T23:05:18.432Z,11.27
2023-03-17T23:07:53.521Z,11.16
2023-03-17T23:10:25.296Z,11.15
2023-03-17T23:12:54.133Z,11.18
2023-03-17T23:15:22.836Z,10.99
2023-03-17T23:17:52.483Z,10.95
2023-03-17T23:20:25.395Z,10.86
2023-03-17T23:22:54.110Z,11.05
2023-03-17T23:25:23.290Z,11.01
2023-03-17T23:27:52.466Z,10.98
2023-03-17T23:30:21.728Z,11.10
2023-03-17T23:32:50.361Z,11.12
2023-03-17T23:35:19.556Z,11.00
2023-03-17T23:37:50.428Z,11.30
2023-03-17T23:40:19.030Z,11.15
2023-03-17T23:42:49.027Z,11.02
2023-03-17T23:45:18.555Z,11.19
2023-03-17T23:47:47.905Z,10.82
2023-03-17T23:50:16.948Z,10.91
2023-03-17T23:52:45.810Z,11.14
2023-03-17T23:55:16.118Z,11.26
2023-03-17T23:57:44.570Z,11.24
